sensor_id;sensor_type;location;lat;lon;timestamp;pressure;altitude;pressure_sealevel;temperature
43292;BMP280;28754;47.700;7.924;2023-05-27T00:00:06;91908.41;;;16.84
43292;BMP280;28754;47.700;7.924;2023-05-27T00:02:53;91904.56;;;16.82
43292;BMP280;28754;47.700;7.924;2023-05-27T00:05:40;91908.00;;;16.77
43292;BMP280;28754;47.700;7.924;2023-05-27T00:08:26;91896.75;;;16.68
43292;BMP280;28754;47.700;7.924;2023-05-27T00:11:13;91908.22;;;16.62
43292;BMP280;28754;47.700;7.924;2023-05-27T00:14:00;91903.56;;;16.59
43292;BMP280;28754;47.700;7.924;2023-05-27T00:16:46;91910.31;;;16.60
43292;BMP280;28754;47.700;7.924;2023-05-27T00:19:33;91895.06;;;16.59
43292;BMP280;28754;47.700;7.924;2023-05-27T00:22:20;91893.31;;;16.54
43292;BMP280;28754;47.700;7.924;2023-05-27T00:25:08;91892.91;;;16.48
43292;BMP280;28754;47.700;7.924;2023-05-27T00:27:55;91888.84;;;16.42
43292;BMP280;28754;47.700;7.924;2023-05-27T00:30:42;91895.25;;;16.44
43292;BMP280;28754;47.700;7.924;2023-05-27T00:33:29;91894.56;;;16.39
43292;BMP280;28754;47.700;7.924;2023-05-27T00:36:16;91896.41;;;16.38
43292;BMP280;28754;47.700;7.924;2023-05-27T00:39:03;91900.84;;;16.33
43292;BMP280;28754;47.700;7.924;2023-05-27T00:41:51;91884.94;;;16.26
43292;BMP280;28754;47.700;7.924;2023-05-27T00:44:38;91889.13;;;16.22
43292;BMP280;28754;47.700;7.924;2023-05-27T00:47:30;91885.47;;;16.23
43292;BMP280;28754;47.700;7.924;2023-05-27T00:50:18;91886.03;;;16.20
43292;BMP280;28754;47.700;7.924;2023-05-27T00:53:05;91887.09;;;16.14
43292;BMP280;28754;47.700;7.924;2023-05-27T00:55:53;91883.25;;;16.12
43292;BMP280;28754;47.700;7.924;2023-05-27T00:58:42;91882.56;;;16.06
43292;BMP280;28754;47.700;7.924;2023-05-27T01:01:29;91875.59;;;16.07
43292;BMP280;28754;47.700;7.924;2023-05-27T01:04:16;91876.84;;;16.09
43292;BMP280;28754;47.700;7.924;2023-05-27T01:07:44;91864.75;;;16.05
43292;BMP280;28754;47.700;7.924;2023-05-27T01:10:46;91870.75;;;16.00
43292;BMP280;28754;47.700;7.924;2023-05-27T01:13:46;91875.94;;;16.00
43292;BMP280;28754;47.700;7.924;2023-05-27T01:16:38;91870.34;;;15.93
43292;BMP280;28754;47.700;7.924;2023-05-27T01:19:35;91868.34;;;15.85
43292;BMP280;28754;47.700;7.924;2023-05-27T01:22:29;91869.19;;;15.81
43292;BMP280;28754;47.700;7.924;2023-05-27T01:25:16;91856.53;;;15.79
43292;BMP280;28754;47.700;7.924;2023-05-27T01:28:04;91855.19;;;15.87
43292;BMP280;28754;47.700;7.924;2023-05-27T01:34:05;91856.63;;;15.93
43292;BMP280;28754;47.700;7.924;2023-05-27T01:36:58;91852.75;;;15.95
43292;BMP280;28754;47.700;7.924;2023-05-27T01:39:50;91852.75;;;15.95
43292;BMP280;28754;47.700;7.924;2023-05-27T01:42:40;91840.38;;;15.92
43292;BMP280;28754;47.700;7.924;2023-05-27T01:45:26;91855.81;;;15.97
43292;BMP280;28754;47.700;7.924;2023-05-27T01:48:13;91843.38;;;15.99
43292;BMP280;28754;47.700;7.924;2023-05-27T01:51:00;91847.50;;;16.00
43292;BMP280;28754;47.700;7.924;2023-05-27T01:53:47;91837.69;;;16.02
43292;BMP280;28754;47.700;7.924;2023-05-27T01:56:34;91845.91;;;16.04
43292;BMP280;28754;47.700;7.924;2023-05-27T01:59:21;91833.28;;;16.03
43292;BMP280;28754;47.700;7.924;2023-05-27T02:02:08;91830.91;;;16.06
43292;BMP280;28754;47.700;7.924;2023-05-27T02:04:55;91833.19;;;16.08
43292;BMP280;28754;47.700;7.924;2023-05-27T02:07:42;91838.66;;;16.06
43292;BMP280;28754;47.700;7.924;2023-05-27T02:10:29;91829.69;;;15.99
43292;BMP280;28754;47.700;7.924;2023-05-27T02:13:16;91829.97;;;15.97
43292;BMP280;28754;47.700;7.924;2023-05-27T02:16:02;91842.41;;;15.95
43292;BMP280;28754;47.700;7.924;2023-05-27T02:18:49;91842.97;;;15.92
43292;BMP280;28754;47.700;7.924;2023-05-27T02:21:36;91841.47;;;15.86
43292;BMP280;28754;47.700;7.924;2023-05-27T02:24:23;91829.69;;;15.80
43292;BMP280;28754;47.700;7.924;2023-05-27T02:27:10;91833.38;;;15.75
43292;BMP280;28754;47.700;7.924;2023-05-27T02:29:57;91830.56;;;15.71
43292;BMP280;28754;47.700;7.924;2023-05-27T02:32:45;91822.06;;;15.71
43292;BMP280;28754;47.700;7.924;2023-05-27T02:35:33;91827.78;;;15.68
43292;BMP280;28754;47.700;7.924;2023-05-27T02:38:20;91829.38;;;15.64
43292;BMP280;28754;47.700;7.924;2023-05-27T02:41:07;91822.66;;;15.63
43292;BMP280;28754;47.700;7.924;2023-05-27T02:43:55;91817.28;;;15.59
43292;BMP280;28754;47.700;7.924;2023-05-27T02:46:41;91825.56;;;15.56
43292;BMP280;28754;47.700;7.924;2023-05-27T02:49:28;91827.38;;;15.56
43292;BMP280;28754;47.700;7.924;2023-05-27T02:52:15;91818.88;;;15.55
43292;BMP280;28754;47.700;7.924;2023-05-27T02:55:02;91820.69;;;15.55
43292;BMP280;28754;47.700;7.924;2023-05-27T02:57:51;91820.97;;;15.53
43292;BMP280;28754;47.700;7.924;2023-05-27T03:00:38;91825.91;;;15.50
43292;BMP280;28754;47.700;7.924;2023-05-27T03:03:25;91827.50;;;15.46
43292;BMP280;28754;47.700;7.924;2023-05-27T03:06:11;91825.97;;;15.45
43292;BMP280;28754;47.700;7.924;2023-05-27T03:08:58;91817.50;;;15.40
43292;BMP280;28754;47.700;7.924;2023-05-27T03:11:46;91813.13;;;15.40
43292;BMP280;28754;47.700;7.924;2023-05-27T03:14:32;91815.66;;;15.45
43292;BMP280;28754;47.700;7.924;2023-05-27T03:17:20;91820.53;;;15.46
43292;BMP280;28754;47.700;7.924;2023-05-27T03:20:07;91810.22;;;15.46
43292;BMP280;28754;47.700;7.924;2023-05-27T03:22:54;91820.25;;;15.48
43292;BMP280;28754;47.700;7.924;2023-05-27T03:25:41;91823.31;;;15.50
43292;BMP280;28754;47.700;7.924;2023-05-27T03:28:28;91818.22;;;15.45
43292;BMP280;28754;47.700;7.924;2023-05-27T03:31:15;91813.41;;;15.39
43292;BMP280;28754;47.700;7.924;2023-05-27T03:34:16;91818.81;;;15.37
43292;BMP280;28754;47.700;7.924;2023-05-27T03:37:03;91813.41;;;15.39
43292;BMP280;28754;47.700;7.924;2023-05-27T03:40:05;91807.50;;;15.33
43292;BMP280;28754;47.700;7.924;2023-05-27T03:42:53;91808.31;;;15.29
43292;BMP280;28754;47.700;7.924;2023-05-27T03:45:42;91810.38;;;15.32
43292;BMP280;28754;47.700;7.924;2023-05-27T03:48:29;91806.53;;;15.29
43292;BMP280;28754;47.700;7.924;2023-05-27T03:51:17;91804.66;;;15.35
43292;BMP280;28754;47.700;7.924;2023-05-27T03:54:05;91815.22;;;15.38
43292;BMP280;28754;47.700;7.924;2023-05-27T03:56:52;91812.34;;;15.40
43292;BMP280;28754;47.700;7.924;2023-05-27T03:59:38;91812.56;;;15.43
43292;BMP280;28754;47.700;7.924;2023-05-27T04:02:25;91813.06;;;15.45
43292;BMP280;28754;47.700;7.924;2023-05-27T04:05:12;91822.31;;;15.46
43292;BMP280;28754;47.700;7.924;2023-05-27T04:08:00;91820.31;;;15.43
43292;BMP280;28754;47.700;7.924;2023-05-27T04:10:47;91815.41;;;15.42
43292;BMP280;28754;47.700;7.924;2023-05-27T04:13:33;91807.97;;;15.40
43292;BMP280;28754;47.700;7.924;2023-05-27T04:16:21;91815.66;;;15.45
43292;BMP280;28754;47.700;7.924;2023-05-27T04:19:08;91819.97;;;15.49
43292;BMP280;28754;47.700;7.924;2023-05-27T04:21:55;91810.72;;;15.48
43292;BMP280;28754;47.700;7.924;2023-05-27T04:24:44;91826.41;;;15.52
43292;BMP280;28754;47.700;7.924;2023-05-27T04:27:31;91824.38;;;15.49
43292;BMP280;28754;47.700;7.924;2023-05-27T04:30:17;91822.66;;;15.40
43292;BMP280;28754;47.700;7.924;2023-05-27T04:33:04;91831.22;;;15.35
43292;BMP280;28754;47.700;7.924;2023-05-27T04:35:51;91831.78;;;15.32
43292;BMP280;28754;47.700;7.924;2023-05-27T04:38:40;91832.78;;;15.36
43292;BMP280;28754;47.700;7.924;2023-05-27T04:41:33;91830.69;;;15.38
43292;BMP280;28754;47.700;7.924;2023-05-27T04:44:32;91821.56;;;15.45
43292;BMP280;28754;47.700;7.924;2023-05-27T04:47:20;91825.88;;;15.55
43292;BMP280;28754;47.700;7.924;2023-05-27T04:50:08;91826.28;;;15.62
43292;BMP280;28754;47.700;7.924;2023-05-27T04:52:57;91824.03;;;15.55
43292;BMP280;28754;47.700;7.924;2023-05-27T04:55:43;91824.31;;;15.54
43292;BMP280;28754;47.700;7.924;2023-05-27T04:58:31;91827.38;;;15.56
43292;BMP280;28754;47.700;7.924;2023-05-27T05:01:17;91818.56;;;15.62
43292;BMP280;28754;47.700;7.924;2023-05-27T05:04:14;91822.31;;;15.69
43292;BMP280;28754;47.700;7.924;2023-05-27T05:07:06;91819.47;;;15.71
43292;BMP280;28754;47.700;7.924;2023-05-27T05:09:55;91812.56;;;15.66
43292;BMP280;28754;47.700;7.924;2023-05-27T05:12:49;91824.41;;;15.67
43292;BMP280;28754;47.700;7.924;2023-05-27T05:15:36;91817.94;;;15.70
43292;BMP280;28754;47.700;7.924;2023-05-27T05:18:24;91824.91;;;15.69
43292;BMP280;28754;47.700;7.924;2023-05-27T05:21:13;91828.28;;;15.70
43292;BMP280;28754;47.700;7.924;2023-05-27T05:24:01;91830.03;;;15.74
43292;BMP280;28754;47.700;7.924;2023-05-27T05:26:48;91823.72;;;15.80
43292;BMP280;28754;47.700;7.924;2023-05-27T05:29:34;91827.03;;;15.85
43292;BMP280;28754;47.700;7.924;2023-05-27T05:32:21;91820.78;;;15.91
43292;BMP280;28754;47.700;7.924;2023-05-27T05:35:08;91811.13;;;15.97
43292;BMP280;28754;47.700;7.924;2023-05-27T05:37:57;91816.72;;;16.04
43292;BMP280;28754;47.700;7.924;2023-05-27T05:40:43;91817.44;;;16.09
43292;BMP280;28754;47.700;7.924;2023-05-27T05:43:36;91821.47;;;16.15
43292;BMP280;28754;47.700;7.924;2023-05-27T05:46:23;91833.31;;;16.21
43292;BMP280;28754;47.700;7.924;2023-05-27T05:49:10;91823.00;;;16.21
43292;BMP280;28754;47.700;7.924;2023-05-27T05:52:02;91813.34;;;16.26
43292;BMP280;28754;47.700;7.924;2023-05-27T05:54:49;91817.41;;;16.32
43292;BMP280;28754;47.700;7.924;2023-05-27T05:57:36;91824.72;;;16.44
43292;BMP280;28754;47.700;7.924;2023-05-27T06:00:24;91811.72;;;16.48
43292;BMP280;28754;47.700;7.924;2023-05-27T06:03:17;91815.75;;;16.54
43292;BMP280;28754;47.700;7.924;2023-05-27T06:06:10;91822.41;;;16.60
43292;BMP280;28754;47.700;7.924;2023-05-27T06:09:15;91823.88;;;16.66
43292;BMP280;28754;47.700;7.924;2023-05-27T06:12:02;91828.72;;;16.68
43292;BMP280;28754;47.700;7.924;2023-05-27T06:14:56;91814.94;;;16.72
43292;BMP280;28754;47.700;7.924;2023-05-27T06:17:53;91826.75;;;16.78
43292;BMP280;28754;47.700;7.924;2023-05-27T06:20:40;91818.63;;;16.84
43292;BMP280;28754;47.700;7.924;2023-05-27T06:23:27;91825.00;;;16.92
43292;BMP280;28754;47.700;7.924;2023-05-27T06:26:32;91827.88;;;17.04
43292;BMP280;28754;47.700;7.924;2023-05-27T06:29:20;91825.19;;;17.14
43292;BMP280;28754;47.700;7.924;2023-05-27T06:32:07;91829.41;;;17.23
43292;BMP280;28754;47.700;7.924;2023-05-27T06:34:53;91828.53;;;17.27
43292;BMP280;28754;47.700;7.924;2023-05-27T06:37:40;91823.28;;;17.32
43292;BMP280;28754;47.700;7.924;2023-05-27T06:40:28;91820.03;;;17.40
43292;BMP280;28754;47.700;7.924;2023-05-27T06:43:15;91815.53;;;17.46
43292;BMP280;28754;47.700;7.924;2023-05-27T06:46:38;91799.41;;;17.49
43292;BMP280;28754;47.700;7.924;2023-05-27T06:49:34;91815.91;;;17.66
43292;BMP280;28754;47.700;7.924;2023-05-27T06:52:24;91805.66;;;17.74
43292;BMP280;28754;47.700;7.924;2023-05-27T06:55:33;91823.47;;;17.89
43292;BMP280;28754;47.700;7.924;2023-05-27T06:58:52;91808.69;;;18.03
43292;BMP280;28754;47.700;7.924;2023-05-27T07:01:39;91806.56;;;18.05
43292;BMP280;28754;47.700;7.924;2023-05-27T07:04:30;91806.31;;;18.06
43292;BMP280;28754;47.700;7.924;2023-05-27T07:07:20;91811.69;;;18.10
43292;BMP280;28754;47.700;7.924;2023-05-27T07:10:07;91812.94;;;18.12
43292;BMP280;28754;47.700;7.924;2023-05-27T07:12:54;91809.34;;;18.22
43292;BMP280;28754;47.700;7.924;2023-05-27T07:15:46;91800.41;;;18.27
43292;BMP280;28754;47.700;7.924;2023-05-27T07:18:33;91791.94;;;18.35
43292;BMP280;28754;47.700;7.924;2023-05-27T07:21:22;91798.25;;;18.43
43292;BMP280;28754;47.700;7.924;2023-05-27T07:24:09;91817.22;;;18.52
43292;BMP280;28754;47.700;7.924;2023-05-27T07:26:58;91815.59;;;18.56
43292;BMP280;28754;47.700;7.924;2023-05-27T07:29:47;91810.13;;;18.57
43292;BMP280;28754;47.700;7.924;2023-05-27T07:32:48;91805.47;;;18.67
43292;BMP280;28754;47.700;7.924;2023-05-27T07:35:34;91799.75;;;18.79
43292;BMP280;28754;47.700;7.924;2023-05-27T07:38:21;91808.06;;;18.89
43292;BMP280;28754;47.700;7.924;2023-05-27T07:41:10;91803.72;;;18.98
43292;BMP280;28754;47.700;7.924;2023-05-27T07:43:57;91803.78;;;19.06
43292;BMP280;28754;47.700;7.924;2023-05-27T07:46:46;91800.63;;;19.18
43292;BMP280;28754;47.700;7.924;2023-05-27T07:49:33;91811.22;;;19.29
43292;BMP280;28754;47.700;7.924;2023-05-27T07:52:31;91798.88;;;19.35
43292;BMP280;28754;47.700;7.924;2023-05-27T07:55:19;91799.53;;;19.40
43292;BMP280;28754;47.700;7.924;2023-05-27T07:58:06;91800.28;;;19.41
43292;BMP280;28754;47.700;7.924;2023-05-27T08:01:06;91806.84;;;19.38
43292;BMP280;28754;47.700;7.924;2023-05-27T08:03:53;91795.50;;;19.34
43292;BMP280;28754;47.700;7.924;2023-05-27T08:06:59;91799.53;;;19.40
43292;BMP280;28754;47.700;7.924;2023-05-27T08:10:05;91801.66;;;19.38
43292;BMP280;28754;47.700;7.924;2023-05-27T08:13:06;91794.47;;;19.35
43292;BMP280;28754;47.700;7.924;2023-05-27T08:16:03;91793.72;;;19.43
43292;BMP280;28754;47.700;7.924;2023-05-27T08:19:04;91789.78;;;19.54
43292;BMP280;28754;47.700;7.924;2023-05-27T08:22:09;91792.88;;;19.64
43292;BMP280;28754;47.700;7.924;2023-05-27T08:25:19;91803.66;;;19.80
43292;BMP280;28754;47.700;7.924;2023-05-27T08:28:35;91786.25;;;19.89
43292;BMP280;28754;47.700;7.924;2023-05-27T08:31:55;91789.94;;;19.88
43292;BMP280;28754;47.700;7.924;2023-05-27T08:34:42;91795.13;;;19.88
43292;BMP280;28754;47.700;7.924;2023-05-27T08:37:29;91793.75;;;19.90
43292;BMP280;28754;47.700;7.924;2023-05-27T08:40:19;91781.06;;;19.89
43292;BMP280;28754;47.700;7.924;2023-05-27T08:43:09;91769.31;;;19.91
43292;BMP280;28754;47.700;7.924;2023-05-27T08:46:03;91776.34;;;19.99
43292;BMP280;28754;47.700;7.924;2023-05-27T08:48:53;91775.31;;;20.08
43292;BMP280;28754;47.700;7.924;2023-05-27T08:51:45;91772.56;;;20.22
43292;BMP280;28754;47.700;7.924;2023-05-27T08:54:34;91785.25;;;20.31
43292;BMP280;28754;47.700;7.924;2023-05-27T08:57:30;91775.94;;;20.39
43292;BMP280;28754;47.700;7.924;2023-05-27T09:00:18;91762.94;;;20.47
43292;BMP280;28754;47.700;7.924;2023-05-27T09:03:06;91775.31;;;20.42
43292;BMP280;28754;47.700;7.924;2023-05-27T09:05:55;91770.75;;;20.39
43292;BMP280;28754;47.700;7.924;2023-05-27T09:08:42;91773.50;;;20.42
43292;BMP280;28754;47.700;7.924;2023-05-27T09:11:29;91761.72;;;20.36
43292;BMP280;28754;47.700;7.924;2023-05-27T09:14:23;91771.22;;;20.41
43292;BMP280;28754;47.700;7.924;2023-05-27T09:17:10;91773.50;;;20.51
43292;BMP280;28754;47.700;7.924;2023-05-27T09:19:57;91761.56;;;20.58
43292;BMP280;28754;47.700;7.924;2023-05-27T09:22:44;91766.34;;;20.65
43292;BMP280;28754;47.700;7.924;2023-05-27T09:25:31;91760.50;;;20.67
43292;BMP280;28754;47.700;7.924;2023-05-27T09:28:25;91766.03;;;20.74
43292;BMP280;28754;47.700;7.924;2023-05-27T09:31:12;91760.03;;;20.82
43292;BMP280;28754;47.700;7.924;2023-05-27T09:34:13;91762.19;;;20.80
43292;BMP280;28754;47.700;7.924;2023-05-27T09:37:00;91752.41;;;20.77
43292;BMP280;28754;47.700;7.924;2023-05-27T09:39:47;91758.81;;;20.71
43292;BMP280;28754;47.700;7.924;2023-05-27T09:42:49;91765.13;;;20.70
43292;BMP280;28754;47.700;7.924;2023-05-27T09:45:36;91746.56;;;20.72
43292;BMP280;28754;47.700;7.924;2023-05-27T09:48:25;91751.47;;;20.73
43292;BMP280;28754;47.700;7.924;2023-05-27T09:51:14;91770.91;;;20.76
43292;BMP280;28754;47.700;7.924;2023-05-27T09:54:01;91751.31;;;20.78
43292;BMP280;28754;47.700;7.924;2023-05-27T09:56:49;91744.09;;;20.92
43292;BMP280;28754;47.700;7.924;2023-05-27T09:59:37;91750.69;;;20.98
43292;BMP280;28754;47.700;7.924;2023-05-27T10:02:25;91751.56;;;21.02
43292;BMP280;28754;47.700;7.924;2023-05-27T10:05:15;91755.25;;;21.09
43292;BMP280;28754;47.700;7.924;2023-05-27T10:08:02;91745.88;;;21.17
43292;BMP280;28754;47.700;7.924;2023-05-27T10:10:50;91750.13;;;21.21
43292;BMP280;28754;47.700;7.924;2023-05-27T10:13:37;91742.97;;;21.18
43292;BMP280;28754;47.700;7.924;2023-05-27T10:16:27;91744.31;;;21.24
43292;BMP280;28754;47.700;7.924;2023-05-27T10:19:15;91754.72;;;21.33
43292;BMP280;28754;47.700;7.924;2023-05-27T10:22:12;91756.22;;;21.33
43292;BMP280;28754;47.700;7.924;2023-05-27T10:25:11;91755.19;;;21.26
43292;BMP280;28754;47.700;7.924;2023-05-27T10:27:58;91754.88;;;21.28
43292;BMP280;28754;47.700;7.924;2023-05-27T10:30:46;91746.13;;;21.40
43292;BMP280;28754;47.700;7.924;2023-05-27T10:33:42;91743.91;;;21.59
43292;BMP280;28754;47.700;7.924;2023-05-27T10:36:31;91757.31;;;21.78
43292;BMP280;28754;47.700;7.924;2023-05-27T10:39:24;91752.50;;;21.88
43292;BMP280;28754;47.700;7.924;2023-05-27T10:42:21;91745.00;;;21.87
43292;BMP280;28754;47.700;7.924;2023-05-27T10:45:10;91752.81;;;21.87
43292;BMP280;28754;47.700;7.924;2023-05-27T10:48:00;91750.34;;;21.90
43292;BMP280;28754;47.700;7.924;2023-05-27T10:50:52;91740.69;;;21.91
43292;BMP280;28754;47.700;7.924;2023-05-27T10:53:39;91739.69;;;22.03
43292;BMP280;28754;47.700;7.924;2023-05-27T10:56:26;91744.59;;;22.05
43292;BMP280;28754;47.700;7.924;2023-05-27T10:59:20;91739.81;;;22.07
43292;BMP280;28754;47.700;7.924;2023-05-27T11:02:11;91738.84;;;22.20
43292;BMP280;28754;47.700;7.924;2023-05-27T11:04:58;91740.50;;;22.24
43292;BMP280;28754;47.700;7.924;2023-05-27T11:07:45;91741.72;;;22.27
43292;BMP280;28754;47.700;7.924;2023-05-27T11:10:32;91742.28;;;22.12
43292;BMP280;28754;47.700;7.924;2023-05-27T11:13:18;91726.00;;;22.06
43292;BMP280;28754;47.700;7.924;2023-05-27T11:16:07;91720.38;;;21.96
43292;BMP280;28754;47.700;7.924;2023-05-27T11:18:53;91727.59;;;21.99
43292;BMP280;28754;47.700;7.924;2023-05-27T11:21:49;91736.09;;;22.16
43292;BMP280;28754;47.700;7.924;2023-05-27T11:24:36;91729.03;;;22.17
43292;BMP280;28754;47.700;7.924;2023-05-27T11:27:23;91723.97;;;22.20
43292;BMP280;28754;47.700;7.924;2023-05-27T11:30:12;91718.75;;;22.20
43292;BMP280;28754;47.700;7.924;2023-05-27T11:33:02;91715.25;;;22.16
43292;BMP280;28754;47.700;7.924;2023-05-27T11:35:49;91714.47;;;22.36
43292;BMP280;28754;47.700;7.924;2023-05-27T11:41:35;91700.28;;;22.45
43292;BMP280;28754;47.700;7.924;2023-05-27T11:44:24;91707.47;;;22.28
43292;BMP280;28754;47.700;7.924;2023-05-27T11:47:11;91708.63;;;22.10
43292;BMP280;28754;47.700;7.924;2023-05-27T11:49:58;91702.53;;;22.06
43292;BMP280;28754;47.700;7.924;2023-05-27T11:52:53;91697.22;;;22.23
43292;BMP280;28754;47.700;7.924;2023-05-27T11:55:40;91687.41;;;22.40
43292;BMP280;28754;47.700;7.924;2023-05-27T11:58:26;91698.97;;;22.72
43292;BMP280;28754;47.700;7.924;2023-05-27T12:01:13;91702.53;;;22.87
43292;BMP280;28754;47.700;7.924;2023-05-27T12:04:00;91677.75;;;22.73
43292;BMP280;28754;47.700;7.924;2023-05-27T12:06:46;91689.69;;;22.62
43292;BMP280;28754;47.700;7.924;2023-05-27T12:09:34;91689.13;;;22.57
43292;BMP280;28754;47.700;7.924;2023-05-27T12:12:21;91673.47;;;22.57
43292;BMP280;28754;47.700;7.924;2023-05-27T12:15:08;91668.69;;;22.59
43292;BMP280;28754;47.700;7.924;2023-05-27T12:17:55;91676.75;;;22.66
43292;BMP280;28754;47.700;7.924;2023-05-27T12:20:43;91664.81;;;22.76
43292;BMP280;28754;47.700;7.924;2023-05-27T12:23:29;91676.00;;;22.97
43292;BMP280;28754;47.700;7.924;2023-05-27T12:26:17;91667.56;;;23.12
43292;BMP280;28754;47.700;7.924;2023-05-27T12:29:03;91670.81;;;23.21
43292;BMP280;28754;47.700;7.924;2023-05-27T12:31:59;91660.56;;;23.04
43292;BMP280;28754;47.700;7.924;2023-05-27T12:34:46;91666.34;;;22.77
43292;BMP280;28754;47.700;7.924;2023-05-27T12:37:33;91656.69;;;22.78
43292;BMP280;28754;47.700;7.924;2023-05-27T12:40:20;91662.44;;;22.83
43292;BMP280;28754;47.700;7.924;2023-05-27T12:43:06;91655.13;;;22.77
43292;BMP280;28754;47.700;7.924;2023-05-27T12:45:53;91661.78;;;22.74
43292;BMP280;28754;47.700;7.924;2023-05-27T12:48:40;91657.81;;;22.89
43292;BMP280;28754;47.700;7.924;2023-05-27T12:51:26;91652.06;;;22.95
43292;BMP280;28754;47.700;7.924;2023-05-27T12:54:13;91651.63;;;23.05
43292;BMP280;28754;47.700;7.924;2023-05-27T12:57:00;91657.53;;;23.14
43292;BMP280;28754;47.700;7.924;2023-05-27T12:59:51;91660.69;;;23.19
43292;BMP280;28754;47.700;7.924;2023-05-27T13:02:38;91655.91;;;23.21
43292;BMP280;28754;47.700;7.924;2023-05-27T13:05:25;91655.91;;;23.21
43292;BMP280;28754;47.700;7.924;2023-05-27T13:08:12;91650.38;;;23.23
43292;BMP280;28754;47.700;7.924;2023-05-27T13:11:00;91647.75;;;23.23
43292;BMP280;28754;47.700;7.924;2023-05-27T13:13:47;91643.81;;;23.17
43292;BMP280;28754;47.700;7.924;2023-05-27T13:16:37;91663.63;;;23.18
43292;BMP280;28754;47.700;7.924;2023-05-27T13:19:23;91643.06;;;23.16
43292;BMP280;28754;47.700;7.924;2023-05-27T13:22:10;91638.81;;;23.24
43292;BMP280;28754;47.700;7.924;2023-05-27T13:24:57;91639.69;;;23.40
43292;BMP280;28754;47.700;7.924;2023-05-27T13:27:44;91631.94;;;23.43
43292;BMP280;28754;47.700;7.924;2023-05-27T13:30:34;91625.31;;;23.45
43292;BMP280;28754;47.700;7.924;2023-05-27T13:33:36;91629.91;;;23.48
43292;BMP280;28754;47.700;7.924;2023-05-27T13:36:26;91610.59;;;23.77
43292;BMP280;28754;47.700;7.924;2023-05-27T13:39:33;91609.81;;;23.88
43292;BMP280;28754;47.700;7.924;2023-05-27T13:42:29;91602.41;;;23.90
43292;BMP280;28754;47.700;7.924;2023-05-27T13:45:16;91604.59;;;23.88
43292;BMP280;28754;47.700;7.924;2023-05-27T13:48:03;91620.06;;;23.81
43292;BMP280;28754;47.700;7.924;2023-05-27T13:50:50;91614.53;;;23.71
43292;BMP280;28754;47.700;7.924;2023-05-27T13:53:37;91622.38;;;23.71
43292;BMP280;28754;47.700;7.924;2023-05-27T13:56:26;91619.00;;;23.70
43292;BMP280;28754;47.700;7.924;2023-05-27T13:59:16;91625.22;;;23.66
43292;BMP280;28754;47.700;7.924;2023-05-27T14:02:08;91610.63;;;23.65
43292;BMP280;28754;47.700;7.924;2023-05-27T14:05:05;91596.59;;;23.57
43292;BMP280;28754;47.700;7.924;2023-05-27T14:07:59;91596.78;;;23.64
43292;BMP280;28754;47.700;7.924;2023-05-27T14:10:53;91578.69;;;23.71
43292;BMP280;28754;47.700;7.924;2023-05-27T14:13:43;91590.44;;;23.77
43292;BMP280;28754;47.700;7.924;2023-05-27T14:16:34;91613.88;;;23.74
43292;BMP280;28754;47.700;7.924;2023-05-27T14:19:21;91597.53;;;23.65
43292;BMP280;28754;47.700;7.924;2023-05-27T14:22:08;91590.38;;;23.62
43292;BMP280;28754;47.700;7.924;2023-05-27T14:24:55;91593.31;;;23.48
43292;BMP280;28754;47.700;7.924;2023-05-27T14:27:41;91589.06;;;23.44
43292;BMP280;28754;47.700;7.924;2023-05-27T14:30:28;91582.97;;;23.40
43292;BMP280;28754;47.700;7.924;2023-05-27T14:33:19;91580.34;;;23.28
43292;BMP280;28754;47.700;7.924;2023-05-27T14:36:06;91576.75;;;23.33
43292;BMP280;28754;47.700;7.924;2023-05-27T14:39:10;91565.97;;;23.34
43292;BMP280;28754;47.700;7.924;2023-05-27T14:41:56;91569.47;;;23.26
43292;BMP280;28754;47.700;7.924;2023-05-27T14:44:43;91577.66;;;23.25
43292;BMP280;28754;47.700;7.924;2023-05-27T14:47:32;91570.22;;;23.15
43292;BMP280;28754;47.700;7.924;2023-05-27T14:50:23;91573.59;;;23.15
43292;BMP280;28754;47.700;7.924;2023-05-27T14:53:12;91574.69;;;23.14
43292;BMP280;28754;47.700;7.924;2023-05-27T14:55:58;91569.59;;;23.06
43292;BMP280;28754;47.700;7.924;2023-05-27T14:58:45;91555.34;;;23.04
43292;BMP280;28754;47.700;7.924;2023-05-27T15:01:33;91564.16;;;22.99
43292;BMP280;28754;47.700;7.924;2023-05-27T15:04:20;91565.44;;;22.93
43292;BMP280;28754;47.700;7.924;2023-05-27T15:07:07;91562.78;;;22.81
43292;BMP280;28754;47.700;7.924;2023-05-27T15:09:54;91573.44;;;22.76
43292;BMP280;28754;47.700;7.924;2023-05-27T15:12:46;91568.97;;;22.77
43292;BMP280;28754;47.700;7.924;2023-05-27T15:15:33;91563.56;;;22.82
43292;BMP280;28754;47.700;7.924;2023-05-27T15:18:19;91557.59;;;23.05
43292;BMP280;28754;47.700;7.924;2023-05-27T15:21:06;91564.56;;;23.13
43292;BMP280;28754;47.700;7.924;2023-05-27T15:23:53;91559.47;;;23.16
43292;BMP280;28754;47.700;7.924;2023-05-27T15:26:40;91554.56;;;23.15
43292;BMP280;28754;47.700;7.924;2023-05-27T15:29:27;91548.91;;;23.13
43292;BMP280;28754;47.700;7.924;2023-05-27T15:32:13;91548.16;;;23.12
43292;BMP280;28754;47.700;7.924;2023-05-27T15:35:00;91555.97;;;23.01
43292;BMP280;28754;47.700;7.924;2023-05-27T15:37:49;91544.19;;;22.83
43292;BMP280;28754;47.700;7.924;2023-05-27T15:40:36;91545.25;;;22.70
43292;BMP280;28754;47.700;7.924;2023-05-27T15:43:26;91554.19;;;22.69
43292;BMP280;28754;47.700;7.924;2023-05-27T15:46:13;91558.09;;;22.75
43292;BMP280;28754;47.700;7.924;2023-05-27T15:49:00;91552.25;;;22.78
43292;BMP280;28754;47.700;7.924;2023-05-27T15:51:47;91547.56;;;22.72
43292;BMP280;28754;47.700;7.924;2023-05-27T15:54:34;91558.41;;;22.62
43292;BMP280;28754;47.700;7.924;2023-05-27T15:57:20;91551.44;;;22.54
43292;BMP280;28754;47.700;7.924;2023-05-27T16:00:08;91548.28;;;22.48
43292;BMP280;28754;47.700;7.924;2023-05-27T16:02:58;91555.78;;;22.50
43292;BMP280;28754;47.700;7.924;2023-05-27T16:05:44;91553.09;;;22.58
43292;BMP280;28754;47.700;7.924;2023-05-27T16:08:31;91550.59;;;22.62
43292;BMP280;28754;47.700;7.924;2023-05-27T16:11:18;91552.31;;;22.58
43292;BMP280;28754;47.700;7.924;2023-05-27T16:14:04;91557.97;;;22.48
43292;BMP280;28754;47.700;7.924;2023-05-27T16:16:51;91551.63;;;22.37
43292;BMP280;28754;47.700;7.924;2023-05-27T16:19:38;91543.75;;;22.25
43292;BMP280;28754;47.700;7.924;2023-05-27T16:22:24;91541.44;;;22.12